Time;durP1;ratioP1;P1;durP2;ratioP2;P2;SDS_P1;SDS_P2;PMS_P1;PMS_P2;Temp;Humidity;BMP_temperature;BMP_pressure;BME280_temperature;BME280_humidity;BME280_pressure;Samples;Min_cycle;Max_cycle;Signal;HPM_P1;HPM_P2
2023/01/29 00:00:35;;;;;;;6.65;4.40;;;4.90;99.90;;;;;;4956512;28;20061;-73
2023/01/29 00:03:00;;;;;;;6.78;4.80;;;4.90;99.90;;;;;;4956565;28;20068;-73
2023/01/29 00:05:26;;;;;;;7.15;4.78;;;4.90;99.90;;;;;;4956688;28;20050;-73
2023/01/29 00:07:52;;;;;;;8.13;5.20;;;4.90;99.90;;;;;;4956538;28;20487;-73
2023/01/29 00:10:17;;;;;;;6.30;4.70;;;4.90;99.90;;;;;;4956437;28;20043;-73
2023/01/29 00:12:43;;;;;;;7.82;5.45;;;4.90;99.90;;;;;;4956431;28;20501;-73
2023/01/29 00:15:09;;;;;;;7.85;5.80;;;4.90;99.90;;;;;;4956279;28;20133;-73
2023/01/29 00:17:34;;;;;;;7.20;4.95;;;4.90;99.90;;;;;;4956555;28;20107;-73
2023/01/29 00:20:00;;;;;;;8.43;5.63;;;4.90;99.90;;;;;;4956262;28;20490;-72
2023/01/29 00:22:26;;;;;;;6.95;5.10;;;4.90;99.90;;;;;;4956181;28;20042;-72
2023/01/29 00:24:51;;;;;;;7.50;5.15;;;4.90;99.90;;;;;;4956495;28;20042;-73
2023/01/29 00:27:17;;;;;;;8.45;5.53;;;4.90;99.90;;;;;;4973288;28;20046;-73
2023/01/29 00:29:43;;;;;;;8.40;6.00;;;4.90;99.90;;;;;;4956066;28;20482;-73
2023/01/29 00:32:08;;;;;;;7.03;5.03;;;4.90;99.90;;;;;;4973471;28;20106;-73
2023/01/29 00:34:34;;;;;;;6.85;4.88;;;4.90;99.90;;;;;;4940119;28;20051;-73
2023/01/29 00:37:03;;;;;;;8.10;5.10;;;4.80;99.90;;;;;;4939998;28;20109;-73
2023/01/29 00:39:37;;;;;;;7.20;5.35;;;4.90;99.90;;;;;;4956248;28;20349;-73
2023/01/29 00:44:57;;;;;;;5.75;4.53;;;4.90;99.90;;;;;;4955535;28;20046;-73
2023/01/29 00:47:29;;;;;;;8.55;5.90;;;4.80;99.90;;;;;;4955836;28;20145;-73
2023/01/29 00:49:55;;;;;;;8.27;4.80;;;4.90;99.90;;;;;;4955883;28;20042;-73
2023/01/29 00:52:25;;;;;;;6.90;4.57;;;4.90;99.90;;;;;;4955608;28;20098;-73
2023/01/29 00:54:59;;;;;;;6.80;4.65;;;4.90;99.90;;;;;;4955500;28;20046;-73
2023/01/29 00:57:27;;;;;;;5.53;4.47;;;4.90;99.90;;;;;;4959637;28;20086;-73
2023/01/29 00:59:53;;;;;;;6.00;4.53;;;4.90;99.90;;;;;;4955410;28;20118;-73
2023/01/29 01:05:06;;;;;;;8.55;5.90;;;4.90;99.90;;;;;;4971783;28;20077;-73
2023/01/29 01:07:32;;;;;;;7.25;5.68;;;4.90;99.90;;;;;;4971618;28;20078;-73
2023/01/29 01:12:43;;;;;;;7.68;5.20;;;5.00;99.90;;;;;;4972984;28;20093;-72
2023/01/29 01:15:09;;;;;;;6.07;4.88;;;5.00;99.90;;;;;;4971374;28;20102;-72
2023/01/29 01:17:35;;;;;;;6.75;5.38;;;5.00;99.90;;;;;;4971600;28;20046;-72
2023/01/29 01:20:01;;;;;;;7.80;5.90;;;5.00;99.90;;;;;;4971177;28;20423;-72
2023/01/29 01:22:26;;;;;;;8.25;6.18;;;5.00;99.90;;;;;;4971126;28;20050;-72
2023/01/29 01:24:52;;;;;;;8.30;6.22;;;5.00;99.90;;;;;;4954970;28;20051;-72
2023/01/29 01:27:18;;;;;;;8.30;6.15;;;5.00;99.90;;;;;;4971350;28;20051;-72
2023/01/29 01:29:45;;;;;;;9.77;5.90;;;5.00;99.90;;;;;;4971118;28;20478;-72
2023/01/29 01:32:11;;;;;;;7.10;5.63;;;5.00;99.90;;;;;;4971079;28;20050;-72
2023/01/29 01:34:37;;;;;;;9.75;6.18;;;5.00;99.90;;;;;;4939199;28;20083;-72
2023/01/29 01:37:02;;;;;;;10.07;7.35;;;5.00;99.90;;;;;;4971891;28;20070;-72
2023/01/29 01:39:28;;;;;;;9.18;6.20;;;5.00;99.90;;;;;;4970669;28;20186;-72
2023/01/29 01:41:54;;;;;;;7.85;5.97;;;5.00;99.90;;;;;;4971243;28;20066;-72
2023/01/29 01:44:50;;;;;;;8.77;6.30;;;5.10;99.90;;;;;;4954803;28;20410;-72
2023/01/29 01:47:19;;;;;;;8.35;6.32;;;5.10;99.90;;;;;;4970846;28;20173;-72
2023/01/29 01:49:46;;;;;;;9.82;7.43;;;5.10;99.90;;;;;;4970816;28;20043;-72
2023/01/29 01:52:15;;;;;;;9.45;6.82;;;5.10;99.90;;;;;;4970901;28;20051;-72
2023/01/29 01:54:42;;;;;;;10.13;7.55;;;5.10;99.90;;;;;;4970694;28;20051;-72
2023/01/29 01:57:16;;;;;;;9.75;6.82;;;5.10;99.90;;;;;;4970594;28;20454;-72
2023/01/29 01:59:51;;;;;;;9.88;8.13;;;5.10;99.90;;;;;;4970847;28;20051;-72
2023/01/29 02:10:46;;;;;;;8.27;6.05;;;5.20;99.90;;;;;;4970896;28;20053;-73
2023/01/29 02:13:16;;;;;;;8.20;6.40;;;5.20;99.90;;;;;;4962748;28;20039;-73
2023/01/29 02:15:45;;;;;;;11.27;8.13;;;5.20;99.90;;;;;;4949888;29;20039;-73
2023/01/29 02:18:13;;;;;;;9.70;7.32;;;5.20;99.90;;;;;;4950504;29;20053;-72
2023/01/29 02:20:42;;;;;;;8.82;6.55;;;5.20;99.90;;;;;;4951528;29;20463;-73
2023/01/29 02:23:34;;;;;;;9.32;6.60;;;5.20;99.90;;;;;;4950945;29;20074;-72
2023/01/29 02:26:24;;;;;;;9.75;6.95;;;5.20;99.90;;;;;;4913265;29;20110;-72
2023/01/29 02:29:21;;;;;;;8.95;6.93;;;5.30;99.90;;;;;;4951142;29;20054;-73
2023/01/29 02:32:19;;;;;;;10.70;6.65;;;5.30;99.90;;;;;;4935448;29;20121;-73
2023/01/29 02:38:26;;;;;;;8.48;6.80;;;5.30;99.90;;;;;;4951117;29;19929;-72
2023/01/29 02:40:57;;;;;;;9.95;7.47;;;5.30;99.90;;;;;;4936485;29;20061;-72
2023/01/29 02:43:38;;;;;;;12.00;8.02;;;5.40;99.90;;;;;;4951170;29;20403;-72
2023/01/29 02:46:16;;;;;;;9.95;7.10;;;5.40;99.90;;;;;;4951095;29;20039;-72
2023/01/29 02:49:22;;;;;;;9.73;7.13;;;5.40;99.90;;;;;;4951876;28;20117;-72
2023/01/29 02:51:58;;;;;;;10.70;7.20;;;5.40;99.90;;;;;;4942716;29;20070;-73
2023/01/29 02:54:42;;;;;;;11.13;7.80;;;5.40;99.90;;;;;;4954916;29;20047;-73
2023/01/29 02:57:22;;;;;;;11.43;8.20;;;5.40;99.90;;;;;;4954256;28;20475;-73
2023/01/29 03:00:09;;;;;;;11.27;8.55;;;5.40;99.90;;;;;;4954413;29;20055;-73
2023/01/29 03:02:41;;;;;;;10.68;8.00;;;5.40;99.90;;;;;;4954243;29;20055;-73
2023/01/29 03:05:12;;;;;;;10.20;8.18;;;5.40;99.90;;;;;;4954269;29;20040;-72
2023/01/29 03:07:44;;;;;;;11.80;8.57;;;5.40;99.90;;;;;;4954189;29;20130;-72
2023/01/29 03:10:19;;;;;;;12.13;8.73;;;5.40;99.90;;;;;;4938338;29;20043;-72
2023/01/29 03:12:58;;;;;;;12.02;9.07;;;5.50;99.90;;;;;;4954015;29;20133;-72
2023/01/29 03:15:50;;;;;;;12.98;8.75;;;5.50;99.90;;;;;;4954371;29;20039;-72
2023/01/29 03:18:26;;;;;;;12.32;9.98;;;5.50;99.90;;;;;;4954018;29;20099;-72
2023/01/29 03:20:57;;;;;;;14.32;10.02;;;5.50;99.90;;;;;;4954060;29;20105;-73
2023/01/29 03:32:04;;;;;;;13.40;10.38;;;5.50;99.90;;;;;;4954101;29;19981;-73
2023/01/29 03:34:37;;;;;;;14.65;10.57;;;5.60;99.90;;;;;;4938040;29;20053;-73
2023/01/29 03:37:17;;;;;;;14.77;11.30;;;5.60;99.90;;;;;;4953738;29;20047;-73
2023/01/29 03:39:43;;;;;;;14.25;11.30;;;5.60;99.90;;;;;;4937903;29;20047;-73
2023/01/29 03:42:40;;;;;;;14.55;11.25;;;5.60;99.90;;;;;;4953680;29;20622;-73
2023/01/29 03:45:24;;;;;;;17.50;12.45;;;5.60;99.90;;;;;;4953740;29;20618;-73
2023/01/29 03:48:29;;;;;;;16.90;12.65;;;5.70;99.90;;;;;;4953351;29;20597;-73
2023/01/29 03:51:14;;;;;;;16.98;13.77;;;5.70;99.90;;;;;;4936649;29;20067;-73
2023/01/29 03:54:10;;;;;;;16.48;12.82;;;5.80;99.90;;;;;;4953417;29;20059;-73
2023/01/29 03:56:48;;;;;;;16.27;12.38;;;5.80;99.90;;;;;;4953233;29;20139;-73
2023/01/29 03:59:14;;;;;;;18.27;14.35;;;5.80;99.90;;;;;;4937382;29;20126;-73
2023/01/29 04:01:56;;;;;;;20.57;13.83;;;5.80;99.90;;;;;;4936682;29;20139;-73
2023/01/29 04:04:26;;;;;;;17.90;13.27;;;5.80;99.90;;;;;;4937145;29;20714;-73
2023/01/29 04:06:56;;;;;;;14.57;11.45;;;5.80;99.90;;;;;;4937096;29;20039;-73
2023/01/29 04:09:30;;;;;;;16.08;12.27;;;5.80;99.90;;;;;;4921516;29;20110;-73
2023/01/29 04:12:20;;;;;;;15.80;12.98;;;5.80;99.90;;;;;;4937209;29;20086;-73
2023/01/29 04:14:47;;;;;;;16.58;12.80;;;5.80;99.90;;;;;;4937094;29;20059;-73
2023/01/29 04:17:18;;;;;;;15.57;12.05;;;5.90;99.90;;;;;;4936930;29;20090;-73
2023/01/29 04:19:44;;;;;;;15.15;11.70;;;5.90;99.90;;;;;;4936941;29;20043;-72
2023/01/29 04:22:19;;;;;;;14.57;11.20;;;5.90;99.90;;;;;;4936886;29;20051;-72
2023/01/29 04:24:46;;;;;;;19.92;13.38;;;5.90;99.90;;;;;;4936760;29;20063;-72
2023/01/29 04:27:51;;;;;;;15.70;12.10;;;5.90;99.90;;;;;;4936722;29;20047;-72
2023/01/29 04:30:27;;;;;;;16.98;11.82;;;5.90;99.90;;;;;;4955085;28;20156;-73
2023/01/29 04:33:33;;;;;;;14.60;11.85;;;5.90;99.90;;;;;;4955982;28;20042;-73
2023/01/29 04:36:22;;;;;;;20.10;14.57;;;5.90;99.90;;;;;;4908982;28;20525;-73
2023/01/29 04:39:05;;;;;;;17.33;13.07;;;5.90;99.90;;;;;;4955646;28;20477;-73
2023/01/29 04:41:52;;;;;;;19.08;13.57;;;5.90;99.90;;;;;;4955785;28;20078;-73
2023/01/29 04:44:23;;;;;;;16.92;13.75;;;5.90;99.90;;;;;;4939708;28;20086;-73
2023/01/29 04:46:54;;;;;;;15.10;11.93;;;5.90;99.90;;;;;;4955876;28;20129;-72
2023/01/29 04:49:52;;;;;;;15.68;11.75;;;5.90;99.90;;;;;;4955615;28;20529;-72
2023/01/29 04:52:36;;;;;;;15.80;12.90;;;5.90;99.90;;;;;;4955966;28;20364;-72
2023/01/29 04:55:21;;;;;;;16.95;12.93;;;5.90;99.90;;;;;;4956136;28;20386;-72
2023/01/29 04:57:59;;;;;;;17.98;13.65;;;5.90;99.90;;;;;;4972901;28;20058;-72
2023/01/29 05:00:42;;;;;;;19.58;14.55;;;5.90;99.90;;;;;;4955417;28;20490;-72
2023/01/29 05:03:12;;;;;;;22.20;16.38;;;5.80;99.90;;;;;;4955316;28;20499;-72
2023/01/29 05:05:41;;;;;;;20.50;14.93;;;5.90;99.90;;;;;;4955252;28;20043;-72
2023/01/29 05:08:09;;;;;;;18.83;14.60;;;5.80;99.90;;;;;;4972638;28;20077;-72
2023/01/29 05:10:35;;;;;;;21.48;15.75;;;5.90;99.90;;;;;;4955668;28;20062;-72
2023/01/29 05:13:04;;;;;;;20.38;14.55;;;5.90;99.90;;;;;;4954463;28;20096;-72
2023/01/29 05:15:38;;;;;;;20.60;15.85;;;5.90;99.90;;;;;;4939332;28;20050;-72
2023/01/29 05:18:07;;;;;;;20.77;15.32;;;5.90;99.90;;;;;;4955483;28;20050;-72
2023/01/29 05:20:35;;;;;;;21.70;15.73;;;5.80;99.90;;;;;;4955293;28;20039;-72
2023/01/29 05:23:01;;;;;;;20.30;14.65;;;5.80;99.90;;;;;;4955335;28;20383;-72
2023/01/29 05:25:31;;;;;;;19.63;15.23;;;5.90;99.90;;;;;;4955084;28;20063;-72
2023/01/29 05:28:06;;;;;;;18.38;14.02;;;5.80;99.90;;;;;;4955156;28;20102;-72
2023/01/29 05:30:34;;;;;;;18.70;14.07;;;5.90;99.90;;;;;;4955244;28;20125;-72
2023/01/29 05:33:01;;;;;;;18.75;13.43;;;5.90;99.90;;;;;;4954942;28;20218;-73
2023/01/29 05:35:27;;;;;;;;;;;5.90;99.90;;;;;;4955331;28;20046;-73
2023/01/29 05:37:56;;;;;;;20.58;14.80;;;5.90;99.90;;;;;;4955189;28;20288;-73
2023/01/29 05:40:23;;;;;;;19.50;13.93;;;5.90;99.90;;;;;;4954738;28;20403;-73
2023/01/29 05:42:49;;;;;;;20.13;14.85;;;5.80;99.90;;;;;;4955121;28;20513;-73
2023/01/29 05:45:17;;;;;;;16.85;13.25;;;5.80;99.90;;;;;;4955109;28;20048;-73
2023/01/29 05:47:43;;;;;;;18.63;14.02;;;5.80;99.90;;;;;;4954812;28;20046;-73
2023/01/29 05:50:09;;;;;;;18.80;13.90;;;5.80;99.90;;;;;;4972268;28;20102;-73
2023/01/29 05:52:35;;;;;;;19.55;14.35;;;5.80;99.90;;;;;;4954774;28;20051;-72
2023/01/29 05:55:00;;;;;;;19.35;14.20;;;5.80;99.90;;;;;;4954813;28;20053;-72
2023/01/29 05:57:26;;;;;;;19.73;14.47;;;5.80;99.90;;;;;;4959060;28;20525;-72
2023/01/29 05:59:52;;;;;;;18.60;14.27;;;5.80;99.90;;;;;;4954896;28;20290;-73
2023/01/29 06:02:17;;;;;;;18.48;13.98;;;5.80;99.90;;;;;;4971107;28;20046;-73
2023/01/29 06:04:43;;;;;;;18.52;14.05;;;5.80;99.90;;;;;;4954715;28;20435;-72
2023/01/29 06:07:09;;;;;;;17.90;14.48;;;5.80;99.90;;;;;;4970698;28;20043;-72
2023/01/29 06:09:34;;;;;;;20.10;15.43;;;5.80;99.90;;;;;;4970914;28;20082;-72
2023/01/29 06:12:00;;;;;;;18.77;14.43;;;5.90;99.90;;;;;;4970559;28;20290;-72
2023/01/29 06:14:26;;;;;;;21.10;14.48;;;5.90;99.90;;;;;;4970372;28;20318;-72
2023/01/29 06:16:51;;;;;;;19.98;15.45;;;5.90;99.90;;;;;;4970479;28;20075;-72
2023/01/29 06:19:17;;;;;;;20.17;14.68;;;5.90;99.90;;;;;;4970544;28;20051;-72
2023/01/29 06:21:43;;;;;;;20.73;15.82;;;5.90;99.90;;;;;;4971943;28;20051;-72
2023/01/29 06:24:08;;;;;;;24.05;17.13;;;6.00;99.90;;;;;;4973292;28;20042;-72
2023/01/29 06:26:34;;;;;;;22.88;17.35;;;5.90;99.90;;;;;;4974410;28;20047;-72
2023/01/29 06:29:00;;;;;;;23.88;17.40;;;6.00;99.90;;;;;;4974727;28;20055;-72
2023/01/29 06:31:26;;;;;;;23.80;17.92;;;6.00;99.90;;;;;;4974589;28;20455;-73
2023/01/29 06:33:51;;;;;;;28.95;20.15;;;6.00;99.90;;;;;;4974215;28;20410;-73
2023/01/29 06:36:17;;;;;;;30.45;20.02;;;6.00;99.90;;;;;;4974228;28;20132;-72
2023/01/29 06:38:42;;;;;;;30.50;21.67;;;6.00;99.90;;;;;;4974369;28;20054;-72
2023/01/29 06:41:15;;;;;;;28.60;21.38;;;6.00;99.90;;;;;;4974420;28;20286;-72
2023/01/29 06:43:43;;;;;;;30.08;21.92;;;5.90;99.90;;;;;;4975386;28;20503;-73
2023/01/29 06:46:09;;;;;;;28.50;20.80;;;5.90;99.90;;;;;;4974056;28;20050;-73
2023/01/29 06:48:35;;;;;;;28.88;21.13;;;5.90;99.90;;;;;;4974176;28;20050;-73
2023/01/29 06:51:03;;;;;;;31.75;22.60;;;5.90;99.90;;;;;;4973956;28;20405;-73
2023/01/29 06:53:29;;;;;;;33.90;23.63;;;5.90;99.90;;;;;;4958274;28;20077;-73
2023/01/29 06:55:54;;;;;;;30.95;21.52;;;5.90;99.90;;;;;;4973765;28;20050;-73
2023/01/29 06:58:20;;;;;;;28.02;20.67;;;5.80;99.90;;;;;;4973549;28;20070;-72
2023/01/29 07:00:46;;;;;;;31.92;21.48;;;5.80;99.90;;;;;;4957689;28;20054;-72
2023/01/29 07:03:11;;;;;;;29.42;21.52;;;5.80;99.90;;;;;;4973691;28;20047;-72
2023/01/29 07:05:37;;;;;;;30.75;20.98;;;5.80;99.90;;;;;;4973730;28;20085;-72
2023/01/29 07:08:03;;;;;;;28.50;21.08;;;5.80;99.90;;;;;;4973570;28;20054;-72
2023/01/29 07:10:29;;;;;;;32.10;19.73;;;5.80;99.90;;;;;;4973609;28;20047;-72
2023/01/29 07:12:57;;;;;;;25.98;19.10;;;5.80;99.90;;;;;;4973499;28;20490;-72
2023/01/29 07:15:23;;;;;;;28.20;20.02;;;5.80;99.90;;;;;;4973458;28;20038;-72
2023/01/29 07:18:15;;;;;;;29.20;20.83;;;5.80;99.90;;;;;;4973766;28;20077;-72
2023/01/29 07:20:41;;;;;;;29.80;20.42;;;5.80;99.90;;;;;;4970841;28;20309;-73
2023/01/29 07:23:12;;;;;;;26.90;20.08;;;5.80;99.90;;;;;;4973287;28;20491;-73
2023/01/29 07:25:38;;;;;;;27.92;20.50;;;5.80;99.90;;;;;;4973278;28;20050;-73
2023/01/29 07:28:04;;;;;;;26.58;20.05;;;5.80;99.90;;;;;;4957490;28;20042;-73
2023/01/29 07:30:31;;;;;;;33.08;20.92;;;5.80;99.90;;;;;;4973239;28;20157;-72
2023/01/29 07:33:04;;;;;;;28.77;20.60;;;5.80;99.90;;;;;;4957473;28;20427;-72
2023/01/29 07:35:31;;;;;;;26.17;19.63;;;5.80;99.90;;;;;;4956080;28;20046;-72
2023/01/29 07:37:56;;;;;;;;;;;5.80;99.90;;;;;;4973432;28;20494;-73
2023/01/29 07:40:22;;;;;;;27.08;20.70;;;5.80;99.90;;;;;;4973210;28;19961;-73
2023/01/29 07:42:48;;;;;;;30.25;22.05;;;5.80;99.90;;;;;;4972872;28;20035;-73
2023/01/29 07:45:13;;;;;;;28.48;22.50;;;5.80;99.90;;;;;;4973244;28;20043;-73
2023/01/29 07:47:39;;;;;;;28.95;21.60;;;5.80;99.90;;;;;;4973296;28;20105;-73
2023/01/29 07:50:05;;;;;;;27.73;22.00;;;5.80;99.90;;;;;;4972858;28;20406;-73
2023/01/29 07:52:32;;;;;;;27.98;22.73;;;5.80;99.90;;;;;;4973334;28;20054;-73
2023/01/29 07:54:58;;;;;;;28.83;22.27;;;5.80;99.90;;;;;;4972828;28;20050;-73
2023/01/29 07:57:24;;;;;;;27.08;21.60;;;5.80;99.90;;;;;;4972828;28;20054;-73
2023/01/29 07:59:50;;;;;;;29.38;22.30;;;5.80;99.90;;;;;;4972988;28;20162;-73
2023/01/29 08:02:15;;;;;;;28.02;21.95;;;5.80;99.90;;;;;;4972601;28;20514;-73
2023/01/29 08:04:41;;;;;;;26.48;20.83;;;5.90;99.90;;;;;;4972637;28;20101;-73
2023/01/29 08:07:08;;;;;;;27.88;21.42;;;5.90;99.90;;;;;;4956523;28;20531;-73
2023/01/29 08:09:34;;;;;;;27.23;21.48;;;5.90;99.90;;;;;;4956558;28;20050;-73
2023/01/29 08:12:00;;;;;;;;;;;5.90;99.90;;;;;;4972976;28;20482;-73
2023/01/29 08:14:26;;;;;;;31.45;22.55;;;5.80;99.90;;;;;;4972659;28;19937;-73
2023/01/29 08:16:51;;;;;;;31.02;22.63;;;5.90;99.90;;;;;;4956424;28;20050;-73
2023/01/29 08:19:17;;;;;;;29.58;23.45;;;5.80;99.90;;;;;;4972646;28;20500;-73
2023/01/29 08:21:43;;;;;;;29.08;21.88;;;5.80;99.90;;;;;;4956281;28;20521;-73
2023/01/29 08:24:08;;;;;;;31.92;23.90;;;5.80;99.90;;;;;;4956161;28;20047;-73
2023/01/29 08:26:34;;;;;;;30.33;23.00;;;5.80;99.90;;;;;;4972276;28;20483;-73
2023/01/29 08:29:00;;;;;;;33.33;25.25;;;5.80;99.90;;;;;;4972214;28;20038;-73
2023/01/29 08:31:25;;;;;;;30.10;22.38;;;5.80;99.90;;;;;;4956024;28;20055;-73
2023/01/29 08:33:54;;;;;;;28.65;22.08;;;5.80;99.90;;;;;;4956066;28;20058;-73
2023/01/29 08:36:20;;;;;;;30.88;22.30;;;5.80;99.90;;;;;;4971929;28;20042;-72
2023/01/29 08:38:46;;;;;;;31.17;23.45;;;5.80;99.90;;;;;;4971698;28;20051;-72
2023/01/29 08:41:11;;;;;;;28.77;22.30;;;5.80;99.90;;;;;;4971884;28;20089;-72
2023/01/29 08:43:37;;;;;;;28.88;22.73;;;5.80;99.90;;;;;;4971841;28;20134;-72
2023/01/29 08:46:04;;;;;;;29.67;23.52;;;5.80;99.90;;;;;;4971832;28;20403;-73
2023/01/29 08:48:30;;;;;;;29.85;23.10;;;5.80;99.90;;;;;;4971842;28;20046;-73
2023/01/29 08:51:01;;;;;;;29.40;22.67;;;5.80;99.90;;;;;;4971975;28;20438;-73
2023/01/29 08:53:27;;;;;;;28.42;21.67;;;5.90;99.90;;;;;;4971809;28;20401;-73
2023/01/29 08:55:53;;;;;;;30.42;23.17;;;5.90;99.90;;;;;;4971662;28;20082;-73
2023/01/29 08:58:19;;;;;;;31.85;23.58;;;5.90;99.90;;;;;;4971607;28;20098;-73
2023/01/29 09:00:45;;;;;;;32.20;22.92;;;6.00;99.90;;;;;;4971662;28;20055;-73
2023/01/29 09:03:11;;;;;;;27.67;20.90;;;6.00;99.90;;;;;;4955354;28;20101;-73
2023/01/29 09:05:38;;;;;;;28.88;22.02;;;6.10;99.90;;;;;;4971541;28;20069;-73
2023/01/29 09:08:04;;;;;;;34.08;24.08;;;6.10;99.90;;;;;;4971443;28;20118;-73
2023/01/29 09:10:30;;;;;;;32.92;24.00;;;6.10;99.90;;;;;;4971693;28;20039;-73
2023/01/29 09:12:55;;;;;;;34.75;24.48;;;6.10;99.90;;;;;;4971470;28;20387;-73
2023/01/29 09:15:21;;;;;;;30.98;22.42;;;6.20;99.90;;;;;;4971768;28;20046;-73
2023/01/29 09:17:50;;;;;;;32.45;23.35;;;6.20;99.90;;;;;;4955276;28;20082;-73
2023/01/29 09:20:18;;;;;;;36.85;25.20;;;6.20;99.90;;;;;;4955558;28;20462;-73
2023/01/29 09:22:44;;;;;;;28.38;22.23;;;6.20;99.90;;;;;;4955209;28;20035;-73
2023/01/29 09:25:10;;;;;;;33.08;23.02;;;6.30;99.90;;;;;;4971160;28;20477;-73
2023/01/29 09:27:36;;;;;;;36.25;24.50;;;6.30;99.90;;;;;;4971239;28;20051;-72
2023/01/29 09:30:03;;;;;;;30.90;22.13;;;6.30;99.90;;;;;;4971083;28;20389;-73
2023/01/29 09:32:29;;;;;;;31.42;23.42;;;6.40;99.90;;;;;;4970986;28;20039;-73
2023/01/29 09:34:56;;;;;;;36.65;23.45;;;6.50;99.90;;;;;;4956493;28;20110;-73
2023/01/29 09:37:22;;;;;;;31.77;24.30;;;6.50;99.90;;;;;;4942713;29;20058;-73
2023/01/29 09:39:48;;;;;;;35.10;23.83;;;6.50;99.90;;;;;;4945213;28;20043;-73
2023/01/29 09:42:17;;;;;;;34.78;23.25;;;6.50;99.90;;;;;;4949686;28;20177;-75
2023/01/29 09:45:04;;;;;;;37.45;24.63;;;6.50;99.90;;;;;;4937855;29;20422;-75
2023/01/29 09:47:32;;;;;;;;;;;6.50;99.90;;;;;;4937816;28;20097;-75
2023/01/29 09:50:06;;;;;;;31.00;22.67;;;6.50;99.90;;;;;;4940044;29;19929;-75
2023/01/29 09:52:37;;;;;;;31.70;22.70;;;6.50;99.90;;;;;;4946399;29;20043;-75
2023/01/29 09:55:30;;;;;;;33.75;22.90;;;6.50;99.90;;;;;;4950669;29;20525;-75
2023/01/29 09:57:58;;;;;;;30.08;21.40;;;6.50;99.90;;;;;;4935792;29;20051;-75
2023/01/29 10:00:37;;;;;;;29.95;23.48;;;6.40;99.90;;;;;;4932451;29;20063;-75
2023/01/29 10:03:24;;;;;;;31.23;21.73;;;6.40;99.90;;;;;;4948876;28;20050;-75
2023/01/29 10:06:19;;;;;;;31.33;22.63;;;6.50;99.90;;;;;;4932737;29;20483;-75
2023/01/29 10:09:23;;;;;;;33.75;22.92;;;6.40;99.90;;;;;;4945729;28;20488;-75
2023/01/29 10:12:20;;;;;;;32.50;23.65;;;6.40;99.90;;;;;;4960502;28;20080;-75
2023/01/29 10:14:48;;;;;;;31.55;22.45;;;6.40;99.90;;;;;;4933139;29;20052;-74
2023/01/29 10:17:32;;;;;;;33.00;22.95;;;6.40;99.90;;;;;;4939588;29;20498;-72
2023/01/29 10:20:35;;;;;;;31.13;22.08;;;6.30;99.90;;;;;;4954859;28;20142;-73
2023/01/29 10:23:16;;;;;;;33.88;23.65;;;6.40;99.90;;;;;;4940992;29;20063;-73
2023/01/29 10:25:44;;;;;;;32.67;22.95;;;6.40;99.90;;;;;;4933191;29;20055;-73
2023/01/29 10:28:31;;;;;;;34.78;24.77;;;6.40;99.90;;;;;;4959206;28;20046;-72
2023/01/29 10:31:07;;;;;;;33.83;23.30;;;6.40;99.90;;;;;;4953924;28;20134;-73
2023/01/29 10:33:37;;;;;;;34.47;24.70;;;6.50;99.90;;;;;;4946551;29;20047;-73
2023/01/29 10:36:08;;;;;;;34.53;23.20;;;6.60;99.90;;;;;;4926125;29;20055;-73
2023/01/29 10:38:52;;;;;;;33.35;23.48;;;6.60;99.90;;;;;;4946741;28;20506;-73
2023/01/29 10:41:49;;;;;;;33.47;23.25;;;6.60;99.90;;;;;;4949355;29;20047;-72
2023/01/29 10:44:35;;;;;;;34.55;24.58;;;6.60;99.90;;;;;;4933261;29;20053;-72
2023/01/29 10:47:13;;;;;;;33.90;23.73;;;6.60;99.90;;;;;;4950312;29;20039;-72
2023/01/29 10:50:06;;;;;;;31.40;23.25;;;6.60;99.90;;;;;;4949240;29;20047;-73
2023/01/29 10:52:34;;;;;;;31.17;23.42;;;6.60;99.90;;;;;;4929825;29;20144;-72
2023/01/29 10:55:34;;;;;;;32.05;22.98;;;6.70;99.90;;;;;;4944622;29;20439;-73
2023/01/29 10:58:08;;;;;;;35.70;24.58;;;6.70;99.90;;;;;;4921093;28;20054;-72
2023/01/29 11:00:39;;;;;;;35.75;24.63;;;6.70;99.90;;;;;;4953043;28;20047;-72
2023/01/29 11:03:20;;;;;;;36.50;23.65;;;6.70;99.90;;;;;;4950860;28;20435;-72
2023/01/29 11:06:04;;;;;;;34.83;24.45;;;6.80;99.90;;;;;;4948950;29;20138;-72
2023/01/29 11:08:49;;;;;;;38.30;24.35;;;6.80;99.90;;;;;;4949044;29;20122;-72
2023/01/29 11:11:17;;;;;;;32.70;23.63;;;6.80;99.90;;;;;;4936821;28;20127;-73
2023/01/29 11:14:01;;;;;;;36.40;24.58;;;6.80;99.90;;;;;;4955096;28;20089;-73
2023/01/29 11:16:29;;;;;;;34.78;22.95;;;6.90;99.90;;;;;;4959783;28;20594;-73
2023/01/29 11:18:56;;;;;;;37.60;24.08;;;7.00;99.90;;;;;;4953152;29;20363;-73
2023/01/29 11:21:23;;;;;;;35.08;24.25;;;7.00;99.90;;;;;;4948337;28;20122;-71
2023/01/29 11:23:49;;;;;;;35.00;24.15;;;6.90;99.90;;;;;;4941417;29;20043;-72
2023/01/29 11:26:22;;;;;;;35.22;23.77;;;7.00;99.90;;;;;;4948177;29;20490;-72
2023/01/29 11:28:49;;;;;;;31.25;22.50;;;7.00;99.90;;;;;;4968006;28;20388;-72
2023/01/29 11:31:24;;;;;;;34.08;23.50;;;7.10;99.90;;;;;;4949851;29;20040;-72
2023/01/29 11:34:15;;;;;;;34.08;23.45;;;7.10;99.90;;;;;;4943070;29;20823;-72
2023/01/29 11:36:41;;;;;;;34.80;23.15;;;7.10;99.90;;;;;;4939652;28;20116;-72
2023/01/29 11:39:20;;;;;;;33.38;22.63;;;7.10;99.90;;;;;;4928821;28;20119;-73
2023/01/29 11:41:51;;;;;;;38.65;23.17;;;7.10;99.90;;;;;;4943160;28;20059;-72
2023/01/29 11:44:32;;;;;;;32.53;22.92;;;7.10;99.90;;;;;;4941330;29;20043;-73
2023/01/29 11:47:15;;;;;;;30.58;21.33;;;7.10;99.90;;;;;;4918444;29;20483;-74
2023/01/29 11:49:52;;;;;;;31.02;22.00;;;7.10;99.90;;;;;;4951828;29;20043;-74
2023/01/29 11:52:22;;;;;;;30.00;20.60;;;7.10;99.90;;;;;;4953305;29;20138;-74
2023/01/29 11:55:04;;;;;;;35.75;22.80;;;7.10;99.90;;;;;;4940901;29;20052;-74
2023/01/29 11:57:33;;;;;;;31.50;21.52;;;7.20;99.90;;;;;;4935172;29;20072;-74
2023/01/29 12:00:18;;;;;;;33.75;23.13;;;7.20;99.90;;;;;;4921848;29;20138;-74
2023/01/29 12:02:47;;;;;;;31.30;22.30;;;7.30;99.90;;;;;;4933789;29;20138;-74
2023/01/29 12:05:16;;;;;;;30.00;21.60;;;7.40;99.90;;;;;;4938509;29;20134;-74
2023/01/29 12:07:48;;;;;;;33.42;22.05;;;7.50;99.90;;;;;;4936328;29;20043;-74
2023/01/29 12:10:36;;;;;;;33.35;21.83;;;7.40;99.90;;;;;;4946436;28;20051;-74
2023/01/29 12:13:20;;;;;;;30.90;22.05;;;7.50;99.90;;;;;;4937150;29;20435;-74
2023/01/29 12:15:47;;;;;;;31.05;22.65;;;7.50;99.90;;;;;;4933707;29;20039;-74
2023/01/29 12:18:29;;;;;;;30.70;20.98;;;7.50;99.90;;;;;;4924327;29;20757;-74
2023/01/29 12:21:04;;;;;;;30.77;20.45;;;7.60;99.90;;;;;;4934155;28;20054;-74
2023/01/29 12:23:56;;;;;;;28.92;20.80;;;7.50;99.90;;;;;;4951592;29;20519;-74
2023/01/29 12:26:34;;;;;;;30.17;20.95;;;7.60;99.90;;;;;;4952935;29;20062;-74
2023/01/29 12:29:36;;;;;;;29.10;20.48;;;7.60;99.90;;;;;;4945202;29;20097;-74
2023/01/29 12:32:25;;;;;;;25.60;18.42;;;7.60;99.90;;;;;;4945481;29;20046;-74
2023/01/29 12:35:17;;;;;;;25.30;17.83;;;7.70;99.90;;;;;;4930571;28;20065;-74
2023/01/29 12:38:04;;;;;;;24.27;17.83;;;7.70;99.90;;;;;;4939613;29;20519;-76
2023/01/29 12:41:11;;;;;;;24.13;17.00;;;7.70;99.90;;;;;;4947242;28;20047;-76
2023/01/29 12:44:03;;;;;;;25.00;17.58;;;7.70;99.90;;;;;;4929942;29;20055;-76
2023/01/29 12:46:42;;;;;;;22.83;16.83;;;7.80;99.90;;;;;;4931626;29;20121;-74
2023/01/29 12:49:25;;;;;;;22.92;17.02;;;7.80;99.90;;;;;;4943418;28;20038;-74
2023/01/29 12:52:09;;;;;;;23.58;16.67;;;7.70;99.90;;;;;;4945740;28;20039;-74
2023/01/29 12:54:46;;;;;;;22.80;16.17;;;7.80;99.90;;;;;;4942302;29;20122;-74
2023/01/29 12:57:26;;;;;;;25.40;17.05;;;7.60;99.90;;;;;;4945599;28;20051;-74
2023/01/29 12:59:57;;;;;;;22.48;15.93;;;7.70;99.90;;;;;;4945065;28;20407;-74
2023/01/29 13:02:48;;;;;;;19.95;14.90;;;7.70;99.90;;;;;;4941091;29;20086;-74
2023/01/29 13:05:54;;;;;;;21.92;15.40;;;7.70;99.90;;;;;;4944464;29;20480;-74
2023/01/29 13:08:25;;;;;;;20.88;14.93;;;7.60;99.90;;;;;;4940000;29;20040;-73
2023/01/29 13:10:53;;;;;;;21.20;15.05;;;7.60;99.90;;;;;;4942841;28;20051;-72
2023/01/29 13:13:54;;;;;;;18.40;13.85;;;7.60;99.90;;;;;;4943501;28;20035;-74
2023/01/29 13:16:24;;;;;;;19.70;14.10;;;7.60;99.90;;;;;;4911067;29;20487;-74
2023/01/29 13:19:16;;;;;;;18.48;14.35;;;7.60;99.90;;;;;;4944136;28;20052;-73
2023/01/29 13:21:44;;;;;;;22.90;16.17;;;7.70;99.90;;;;;;4935444;28;20051;-73
2023/01/29 13:24:19;;;;;;;21.27;15.82;;;7.60;99.90;;;;;;4942197;28;20107;-72
2023/01/29 13:26:46;;;;;;;20.85;15.13;;;7.60;99.90;;;;;;4945888;28;20128;-71
2023/01/29 13:29:22;;;;;;;20.95;15.20;;;7.70;99.90;;;;;;4930697;29;20055;-74
2023/01/29 13:31:49;;;;;;;19.53;14.73;;;7.60;99.90;;;;;;4945845;28;20562;-73
2023/01/29 13:34:33;;;;;;;19.52;13.93;;;7.80;99.90;;;;;;4939443;29;20562;-73
2023/01/29 13:37:15;;;;;;;19.27;13.80;;;7.70;99.90;;;;;;4946094;28;20078;-74
2023/01/29 13:39:48;;;;;;;18.48;12.60;;;7.80;99.90;;;;;;4941128;28;20051;-73
2023/01/29 13:42:23;;;;;;;20.13;14.27;;;7.80;99.90;;;;;;4941141;29;20043;-73